createdAt,value
2023-03-18T00:01:28.537Z,12.46
2023-03-18T00:03:31.425Z,12.39
2023-03-18T00:05:34.377Z,12.32
2023-03-18T00:07:37.772Z,12.20
2023-03-18T00:09:42.426Z,12.22
2023-03-18T00:11:46.066Z,12.27
2023-03-18T00:13:49.236Z,12.19
2023-03-18T00:15:52.809Z,12.12
2023-03-18T00:17:56.022Z,12.14
2023-03-18T00:20:05.569Z,12.18
2023-03-18T00:22:10.279Z,12.24
2023-03-18T00:24:13.071Z,12.27
2023-03-18T00:26:17.296Z,12.18
2023-03-18T00:28:20.533Z,12.15
2023-03-18T00:30:23.981Z,12.10
2023-03-18T00:32:28.069Z,12.03
2023-03-18T00:34:30.809Z,11.93
2023-03-18T00:36:33.459Z,11.90
2023-03-18T00:38:37.338Z,11.85
2023-03-18T00:40:53.245Z,11.80
2023-03-18T00:43:07.770Z,11.72
2023-03-18T00:45:12.018Z,11.71
2023-03-18T00:47:14.765Z,11.78
2023-03-18T00:49:17.828Z,11.74
2023-03-18T00:51:22.840Z,11.69
2023-03-18T00:53:26.140Z,11.74
2023-03-18T00:55:28.931Z,11.67
2023-03-18T00:57:32.160Z,11.62
2023-03-18T00:59:36.128Z,11.66
2023-03-18T01:01:39.261Z,11.66
2023-03-18T01:03:43.413Z,11.69
2023-03-18T01:05:46.112Z,11.73
2023-03-18T01:07:49.166Z,11.79
2023-03-18T01:09:51.780Z,11.78
2023-03-18T01:11:54.541Z,11.78
2023-03-18T01:13:59.346Z,11.82
2023-03-18T01:16:03.512Z,11.77
2023-03-18T01:18:06.350Z,11.74
2023-03-18T01:20:11.561Z,11.71
2023-03-18T01:22:14.552Z,11.74
2023-03-18T01:24:17.174Z,11.83
2023-03-18T01:26:19.903Z,11.83
2023-03-18T01:28:23.414Z,11.81
2023-03-18T01:30:26.366Z,11.77
2023-03-18T01:32:30.484Z,11.83
2023-03-18T01:34:34.237Z,11.78
2023-03-18T01:36:37.060Z,11.71
2023-03-18T01:38:40.824Z,11.66
2023-03-18T01:40:43.924Z,11.63
2023-03-18T01:42:49.926Z,11.57
2023-03-18T01:45:18.017Z,11.67
2023-03-18T01:47:21.692Z,11.66
2023-03-18T01:49:29.079Z,11.62
2023-03-18T01:51:32.264Z,11.65
2023-03-18T01:53:39.893Z,11.68
2023-03-18T01:55:45.119Z,11.54
2023-03-18T01:57:50.040Z,11.56
2023-03-18T01:59:55.236Z,11.77
2023-03-18T02:02:02.846Z,11.77
2023-03-18T02:04:07.474Z,11.77
2023-03-18T02:06:12.292Z,11.67
2023-03-18T02:08:15.629Z,11.71
2023-03-18T02:10:20.579Z,11.61
2023-03-18T02:12:25.207Z,11.68
2023-03-18T02:14:28.287Z,11.74
2023-03-18T02:16:39.992Z,11.62
2023-03-18T02:18:47.967Z,11.60
2023-03-18T02:21:08.136Z,11.45
2023-03-18T02:23:22.694Z,11.36
2023-03-18T02:25:37.385Z,11.31
2023-03-18T02:27:43.011Z,11.21
2023-03-18T02:29:47.817Z,11.18
2023-03-18T02:31:51.813Z,11.08
2023-03-18T02:33:55.309Z,11.11
2023-03-18T02:36:03.058Z,10.99
2023-03-18T02:38:06.073Z,10.98
2023-03-18T02:40:19.981Z,10.95
2023-03-18T02:42:29.864Z,10.95
2023-03-18T02:44:39.290Z,10.83
2023-03-18T02:46:53.893Z,10.95
2023-03-18T02:48:58.102Z,10.95
2023-03-18T02:51:00.741Z,10.98
2023-03-18T02:53:05.866Z,10.90
2023-03-18T02:55:09.286Z,10.89
2023-03-18T02:57:11.937Z,10.84
2023-03-18T02:59:15.388Z,10.82
2023-03-18T03:01:20.608Z,10.81
2023-03-18T03:03:23.424Z,10.77
2023-03-18T03:05:26.445Z,10.74
2023-03-18T03:07:29.059Z,10.74
2023-03-18T03:09:31.932Z,10.81
2023-03-18T03:11:34.711Z,10.85
2023-03-18T03:13:38.887Z,10.81
2023-03-18T03:15:42.678Z,10.79
2023-03-18T03:17:48.285Z,10.82
2023-03-18T03:19:51.150Z,10.81
2023-03-18T03:21:53.912Z,10.85
2023-03-18T03:23:56.928Z,10.79
2023-03-18T03:25:59.621Z,10.83
2023-03-18T03:28:02.962Z,10.89
2023-03-18T03:30:07.554Z,10.79
2023-03-18T03:32:10.666Z,10.81
2023-03-18T03:34:14.703Z,10.82
2023-03-18T03:36:18.753Z,10.85
2023-03-18T03:38:23.085Z,10.90
2023-03-18T03:40:27.564Z,10.71
2023-03-18T03:42:30.175Z,10.69
2023-03-18T03:44:32.820Z,10.74
2023-03-18T03:46:35.518Z,10.63
2023-03-18T03:48:39.370Z,10.58
2023-03-18T03:50:43.381Z,10.69
2023-03-18T03:52:47.072Z,10.70
2023-03-18T03:54:50.295Z,10.80
2023-03-18T03:56:53.358Z,10.65
2023-03-18T03:58:55.976Z,10.59
2023-03-18T04:00:58.737Z,10.67
2023-03-18T04:03:01.668Z,10.66
2023-03-18T04:05:04.497Z,10.65
2023-03-18T04:07:08.953Z,10.69
2023-03-18T04:09:11.743Z,10.69
2023-03-18T04:11:14.398Z,10.74
2023-03-18T04:13:17.146Z,10.61
2023-03-18T04:15:22.042Z,10.54
2023-03-18T04:17:24.818Z,10.59
2023-03-18T04:19:28.945Z,10.52
2023-03-18T04:21:31.713Z,10.43
2023-03-18T04:23:35.889Z,10.40
2023-03-18T04:25:38.782Z,10.52
2023-03-18T04:27:41.775Z,10.46
2023-03-18T04:29:44.710Z,10.47
2023-03-18T04:31:47.527Z,10.46
2023-03-18T04:33:50.407Z,10.48
2023-03-18T04:35:53.459Z,10.47
2023-03-18T04:37:56.208Z,10.43
2023-03-18T04:40:00.461Z,10.46
2023-03-18T04:42:03.307Z,10.42
2023-03-18T04:44:06.283Z,10.45
2023-03-18T04:46:08.885Z,10.45
2023-03-18T04:48:11.735Z,10.31
2023-03-18T04:50:14.942Z,10.36
2023-03-18T04:52:17.611Z,10.30
2023-03-18T04:54:20.307Z,10.40
2023-03-18T04:56:24.539Z,10.35
2023-03-18T04:58:27.381Z,10.28
2023-03-18T05:00:30.088Z,10.29
2023-03-18T05:02:32.762Z,10.49
2023-03-18T05:04:37.519Z,10.40
2023-03-18T05:06:47.390Z,10.34
2023-03-18T05:08:51.438Z,10.30
2023-03-18T05:10:54.114Z,10.26
2023-03-18T05:12:58.102Z,10.34
2023-03-18T05:15:00.804Z,10.36
2023-03-18T05:17:03.854Z,10.26
2023-03-18T05:19:06.501Z,10.29
2023-03-18T05:21:10.160Z,10.25
2023-03-18T05:23:12.823Z,10.25
2023-03-18T05:25:15.696Z,10.19
2023-03-18T05:27:19.950Z,9.97
2023-03-18T05:29:24.622Z,9.81
2023-03-18T05:31:27.348Z,9.66
2023-03-18T05:33:30.334Z,9.56
2023-03-18T05:35:33.287Z,9.51
2023-03-18T05:37:36.860Z,9.45
2023-03-18T05:39:39.745Z,9.41
2023-03-18T05:41:42.358Z,9.37
2023-03-18T05:43:45.064Z,9.31
2023-03-18T05:45:50.131Z,9.25
2023-03-18T05:47:53.019Z,9.21
2023-03-18T05:49:55.689Z,9.22
2023-03-18T05:51:58.400Z,9.15
2023-03-18T05:54:01.039Z,9.24
2023-03-18T05:56:03.739Z,9.24
2023-03-18T05:58:06.625Z,9.23
2023-03-18T06:00:10.553Z,9.26
2023-03-18T06:02:14.630Z,9.18
2023-03-18T06:04:19.144Z,9.08
2023-03-18T06:06:21.914Z,9.08
2023-03-18T06:08:25.297Z,9.18
2023-03-18T06:10:28.939Z,9.06
2023-03-18T06:12:31.625Z,9.11
2023-03-18T06:14:34.446Z,9.15
2023-03-18T06:16:37.276Z,9.12
2023-03-18T06:18:41.797Z,9.16
2023-03-18T06:20:44.365Z,9.21
2023-03-18T06:22:49.703Z,9.20
2023-03-18T06:24:52.650Z,9.25
2023-03-18T06:26:55.423Z,9.22
2023-03-18T06:28:58.902Z,9.23
2023-03-18T06:31:02.726Z,9.24
2023-03-18T06:33:05.861Z,9.25
2023-03-18T06:35:11.697Z,9.25
2023-03-18T06:37:15.220Z,9.28
2023-03-18T06:39:17.892Z,9.27
2023-03-18T06:41:20.568Z,9.23
2023-03-18T06:43:23.368Z,9.27
2023-03-18T06:45:26.492Z,9.35
2023-03-18T06:47:29.558Z,9.37
2023-03-18T06:49:32.669Z,9.46
2023-03-18T06:51:36.701Z,9.48
2023-03-18T06:53:39.696Z,9.55
2023-03-18T06:55:43.162Z,9.59
2023-03-18T06:57:46.570Z,9.65
2023-03-18T06:59:49.607Z,9.64
2023-03-18T07:01:52.394Z,9.58
2023-03-18T07:03:55.529Z,9.59
2023-03-18T07:05:58.153Z,9.66
2023-03-18T07:08:02.872Z,9.72
2023-03-18T07:10:06.910Z,9.90
2023-03-18T07:12:10.878Z,9.94
2023-03-18T07:14:14.481Z,10.03
2023-03-18T07:16:17.392Z,10.38
2023-03-18T07:18:20.161Z,10.83
2023-03-18T07:20:23.595Z,11.41
2023-03-18T07:22:26.337Z,11.29
2023-03-18T07:24:30.340Z,11.69
2023-03-18T07:26:33.118Z,12.15
2023-03-18T07:28:35.873Z,12.23
2023-03-18T07:30:39.524Z,12.98
2023-03-18T07:32:42.201Z,13.10
2023-03-18T07:34:44.882Z,14.41
2023-03-18T07:36:47.477Z,14.27
2023-03-18T07:38:50.100Z,13.35
2023-03-18T07:40:54.051Z,13.66
2023-03-18T07:42:56.698Z,13.14
2023-03-18T07:44:59.340Z,13.17
2023-03-18T07:47:02.333Z,13.94
2023-03-18T07:49:05.035Z,13.37
2023-03-18T07:51:08.246Z,13.66
2023-03-18T07:53:12.438Z,14.20
2023-03-18T07:55:15.573Z,13.85
2023-03-18T07:57:19.636Z,13.82
2023-03-18T07:59:22.258Z,14.39
2023-03-18T08:01:25.667Z,14.36
2023-03-18T08:03:28.886Z,14.75
2023-03-18T08:05:31.970Z,15.02
2023-03-18T08:07:35.608Z,15.07
2023-03-18T08:09:38.298Z,15.87
2023-03-18T08:11:41.612Z,15.76
2023-03-18T08:13:45.757Z,16.22
2023-03-18T08:15:48.400Z,16.35
2023-03-18T08:17:51.335Z,15.37
2023-03-18T08:19:54.081Z,15.05
2023-03-18T08:21:57.503Z,15.68
2023-03-18T08:24:00.400Z,16.08
2023-03-18T08:26:03.139Z,16.21
2023-03-18T08:28:07.512Z,15.21
2023-03-18T08:30:13.637Z,16.02
2023-03-18T08:32:16.663Z,15.67
2023-03-18T08:34:19.558Z,15.02
2023-03-18T08:36:22.563Z,14.74
2023-03-18T08:38:25.784Z,15.29
2023-03-18T08:40:28.529Z,15.72
2023-03-18T08:42:31.159Z,16.68
2023-03-18T08:44:34.093Z,17.44
2023-03-18T08:46:38.157Z,16.59
2023-03-18T08:48:41.755Z,17.47
2023-03-18T08:50:44.400Z,19.47
2023-03-18T08:52:47.268Z,18.76
2023-03-18T08:54:50.362Z,18.85
2023-03-18T08:56:55.236Z,18.23
2023-03-18T08:58:57.953Z,18.43
2023-03-18T09:01:03.204Z,17.70
2023-03-18T09:03:07.555Z,18.01
2023-03-18T09:05:11.041Z,17.85
2023-03-18T09:07:14.691Z,18.31
2023-03-18T09:09:17.468Z,17.41
2023-03-18T09:11:20.866Z,18.34
2023-03-18T09:13:23.736Z,18.46
2023-03-18T09:15:27.598Z,17.84
2023-03-18T09:17:46.888Z,18.95
2023-03-18T09:19:52.980Z,20.54
2023-03-18T09:21:56.146Z,19.98
2023-03-18T09:23:59.057Z,20.71
2023-03-18T09:26:02.290Z,21.67
2023-03-18T09:28:05.161Z,20.05
2023-03-18T09:30:09.363Z,19.75
2023-03-18T09:32:12.001Z,19.94
2023-03-18T09:34:14.740Z,21.28
2023-03-18T09:36:19.349Z,22.49
2023-03-18T09:38:22.513Z,22.40
2023-03-18T09:40:29.060Z,22.93
2023-03-18T09:42:48.504Z,23.83
2023-03-18T09:44:56.132Z,22.81
2023-03-18T09:47:14.430Z,21.65
2023-03-18T09:49:39.817Z,21.69
2023-03-18T09:51:54.578Z,22.99
2023-03-18T09:54:03.477Z,23.84
2023-03-18T09:56:13.251Z,21.61
2023-03-18T09:58:23.490Z,22.88
2023-03-18T10:00:30.387Z,20.42
2023-03-18T10:02:38.630Z,20.64
2023-03-18T10:04:45.271Z,23.13
2023-03-18T10:06:52.394Z,23.43
2023-03-18T10:09:01.957Z,20.21
2023-03-18T10:11:10.849Z,20.93
2023-03-18T10:13:18.336Z,21.37
2023-03-18T10:15:25.003Z,22.01
2023-03-18T10:17:32.621Z,21.49
2023-03-18T10:19:37.646Z,20.69
2023-03-18T10:21:46.606Z,22.38
2023-03-18T10:24:00.049Z,22.58
2023-03-18T10:26:07.130Z,21.32
2023-03-18T10:28:37.690Z,21.16
2023-03-18T10:30:58.715Z,20.85
2023-03-18T10:33:09.848Z,19.10
2023-03-18T10:35:27.405Z,19.81
2023-03-18T10:37:42.500Z,19.87
2023-03-18T10:39:49.434Z,20.12
2023-03-18T10:41:54.217Z,20.18
2023-03-18T10:43:58.505Z,21.16
2023-03-18T10:46:04.517Z,21.22
2023-03-18T10:48:16.835Z,19.46
2023-03-18T10:50:25.429Z,19.54
2023-03-18T10:52:37.393Z,20.36
2023-03-18T10:54:42.516Z,18.72
2023-03-18T10:56:46.922Z,19.35
2023-03-18T10:58:52.541Z,17.97
2023-03-18T11:00:55.213Z,18.56
2023-03-18T11:02:58.404Z,18.11
2023-03-18T11:05:07.802Z,18.64
2023-03-18T11:07:18.740Z,17.94
2023-03-18T11:09:23.710Z,17.94
2023-03-18T11:11:32.400Z,18.02
2023-03-18T11:13:37.607Z,17.99
2023-03-18T11:15:45.832Z,17.90
2023-03-18T11:17:51.793Z,17.63
2023-03-18T11:20:05.814Z,17.69
2023-03-18T11:22:20.376Z,17.64
2023-03-18T11:24:36.304Z,17.54
2023-03-18T11:26:47.155Z,17.43
2023-03-18T11:28:56.158Z,17.33
2023-03-18T11:31:04.303Z,17.62
2023-03-18T11:33:15.443Z,17.60
2023-03-18T11:35:21.659Z,17.52
2023-03-18T11:37:30.777Z,17.44
2023-03-18T11:39:37.606Z,17.42
2023-03-18T11:41:41.105Z,17.67
2023-03-18T11:43:59.305Z,17.50
2023-03-18T11:46:05.768Z,17.62
2023-03-18T11:48:14.431Z,18.14
2023-03-18T11:50:23.742Z,17.88
2023-03-18T11:52:40.117Z,18.08
2023-03-18T11:55:10.802Z,18.02
2023-03-18T11:57:20.346Z,18.48
2023-03-18T11:59:45.154Z,18.76
2023-03-18T12:01:58.588Z,18.41
2023-03-18T12:04:37.210Z,18.12
2023-03-18T12:06:49.786Z,17.78
2023-03-18T12:09:05.056Z,18.17
2023-03-18T12:11:13.028Z,18.27
2023-03-18T12:13:31.665Z,18.25
2023-03-18T12:15:44.930Z,18.76
2023-03-18T12:17:59.468Z,18.72
2023-03-18T12:20:35.874Z,18.56
2023-03-18T12:22:53.127Z,18.64
2023-03-18T12:25:14.334Z,18.33
2023-03-18T12:27:26.940Z,18.78
2023-03-18T12:29:47.006Z,19.31
2023-03-18T12:32:11.248Z,19.10
2023-03-18T12:34:29.611Z,18.83
2023-03-18T12:36:50.191Z,18.17
2023-03-18T12:39:21.660Z,18.81
2023-03-18T12:41:37.151Z,19.16
2023-03-18T12:43:53.368Z,18.99
2023-03-18T12:46:04.618Z,19.45
2023-03-18T12:48:14.875Z,19.15
2023-03-18T12:50:20.505Z,19.35
2023-03-18T12:52:31.303Z,19.50
2023-03-18T12:54:40.724Z,19.06
2023-03-18T12:56:50.918Z,18.81
2023-03-18T12:58:56.993Z,18.80
2023-03-18T13:01:07.174Z,18.73
2023-03-18T13:03:24.647Z,19.11
2023-03-18T13:05:36.835Z,19.65
2023-03-18T13:07:47.936Z,19.42
2023-03-18T13:09:56.525Z,18.97
2023-03-18T13:12:07.363Z,19.43
2023-03-18T13:14:19.397Z,20.08
2023-03-18T13:16:25.339Z,20.32
2023-03-18T13:18:36.405Z,19.73
2023-03-18T13:20:40.816Z,20.08
2023-03-18T13:23:11.055Z,19.59
2023-03-18T13:25:21.048Z,19.71
2023-03-18T13:27:49.914Z,20.25
2023-03-18T13:29:59.879Z,20.33
2023-03-18T13:32:13.956Z,19.65
2023-03-18T13:35:13.314Z,19.56
2023-03-18T13:37:57.465Z,19.30
2023-03-18T13:40:34.017Z,19.05
2023-03-18T13:42:38.613Z,18.83
2023-03-18T13:44:46.201Z,18.51
2023-03-18T13:46:58.725Z,18.89
2023-03-18T13:49:03.848Z,18.98
2023-03-18T13:51:21.791Z,18.82
2023-03-18T13:53:28.696Z,18.88
2023-03-18T13:55:35.133Z,18.98
2023-03-18T13:57:49.009Z,19.31
2023-03-18T13:59:51.769Z,19.02
2023-03-18T14:01:55.046Z,19.16
2023-03-18T14:04:02.948Z,19.31
2023-03-18T14:06:24.850Z,19.02
2023-03-18T14:08:51.323Z,18.89
2023-03-18T14:11:45.422Z,18.92
2023-03-18T14:13:52.259Z,19.26
2023-03-18T14:15:58.027Z,18.84
2023-03-18T14:18:00.971Z,19.02
2023-03-18T14:20:17.112Z,19.02
2023-03-18T14:22:24.716Z,18.77
2023-03-18T14:24:29.262Z,18.57
2023-03-18T14:26:32.549Z,18.68
2023-03-18T14:28:47.422Z,18.65
2023-03-18T14:30:57.258Z,18.54
2023-03-18T14:33:03.106Z,18.53
2023-03-18T14:35:28.302Z,18.69
2023-03-18T14:37:32.543Z,18.78
2023-03-18T14:39:39.117Z,19.06
2023-03-18T14:41:46.726Z,18.73
2023-03-18T14:44:02.279Z,18.62
2023-03-18T14:46:14.242Z,18.82
2023-03-18T14:48:21.478Z,18.85
2023-03-18T14:50:30.886Z,18.71
2023-03-18T15:09:49.775Z,18.46
2023-03-18T15:11:52.638Z,18.38
2023-03-18T15:14:00.102Z,18.46
2023-03-18T15:16:06.077Z,18.51
2023-03-18T15:18:19.557Z,18.26
2023-03-18T15:20:24.094Z,18.10
2023-03-18T15:22:30.630Z,18.20
2023-03-18T15:24:33.514Z,18.15
2023-03-18T15:26:39.710Z,18.18
2023-03-18T15:28:43.326Z,18.22
2023-03-18T15:30:54.249Z,18.33
2023-03-18T15:33:04.721Z,18.16
2023-03-18T15:35:16.493Z,18.20
2023-03-18T15:37:34.235Z,18.31
2023-03-18T15:39:38.287Z,18.38
2023-03-18T15:41:42.409Z,18.14
2023-03-18T15:43:46.990Z,18.26
2023-03-18T15:45:55.366Z,18.32
2023-03-18T15:47:59.472Z,18.34
2023-03-18T15:50:10.579Z,18.17
2023-03-18T15:52:18.081Z,17.99
2023-03-18T15:54:28.001Z,17.63
2023-03-18T15:56:33.176Z,17.70
2023-03-18T15:58:39.093Z,17.29
2023-03-18T16:00:42.160Z,17.35
2023-03-18T16:02:44.942Z,17.17
2023-03-18T16:04:48.644Z,17.10
2023-03-18T16:06:52.400Z,16.83
2023-03-18T16:08:55.517Z,16.85
2023-03-18T16:11:03.925Z,16.75
2023-03-18T16:41:05.786Z,16.23
2023-03-18T16:43:17.450Z,15.94
2023-03-18T16:45:22.446Z,15.98
2023-03-18T16:47:28.352Z,15.80
2023-03-18T16:49:33.163Z,15.91
2023-03-18T16:51:35.775Z,15.77
2023-03-18T16:53:38.451Z,15.71
2023-03-18T16:55:41.193Z,15.55
2023-03-18T16:57:48.899Z,15.49
2023-03-18T16:59:55.704Z,15.44
2023-03-18T17:01:58.426Z,15.36
2023-03-18T17:04:01.130Z,15.27
2023-03-18T17:06:04.507Z,15.27
2023-03-18T17:08:07.153Z,15.18
2023-03-18T17:10:11.032Z,15.21
2023-03-18T17:12:15.947Z,15.10
2023-03-18T17:14:30.794Z,15.11
2023-03-18T17:16:33.811Z,15.20
2023-03-18T17:18:36.516Z,14.85
2023-03-18T17:20:39.166Z,14.89
2023-03-18T17:22:43.204Z,14.87
2023-03-18T17:24:45.786Z,14.76
2023-03-18T17:26:49.101Z,14.75
2023-03-18T17:28:53.918Z,14.77
2023-03-18T17:30:58.097Z,14.62
2023-03-18T17:33:01.160Z,14.57
2023-03-18T17:35:03.905Z,14.60
2023-03-18T17:37:06.498Z,14.56
2023-03-18T17:39:09.738Z,14.49
2023-03-18T17:41:17.980Z,14.46
2023-03-18T17:43:27.453Z,14.40
2023-03-18T17:45:32.178Z,14.35
2023-03-18T17:47:36.715Z,14.25
2023-03-18T17:49:39.653Z,14.29
2023-03-18T17:51:42.381Z,14.32
2023-03-18T17:53:47.883Z,14.25
2023-03-18T17:55:50.728Z,14.21
2023-03-18T17:57:53.340Z,14.21
2023-03-18T17:59:56.985Z,14.21
2023-03-18T18:01:59.780Z,14.19
2023-03-18T18:04:04.944Z,14.19
2023-03-18T18:06:08.183Z,14.11
2023-03-18T18:08:14.762Z,14.14
2023-03-18T18:10:19.444Z,14.06
2023-03-18T18:12:24.997Z,13.85
2023-03-18T18:14:31.745Z,14.00
2023-03-18T18:16:34.398Z,14.02
2023-03-18T18:18:38.020Z,13.97
2023-03-18T18:20:42.320Z,13.90
2023-03-18T18:22:48.369Z,13.84
2023-03-18T18:24:52.269Z,13.89
2023-03-18T18:26:55.309Z,13.89
2023-03-18T18:28:57.953Z,13.75
2023-03-18T18:31:02.047Z,13.83
2023-03-18T18:33:05.141Z,13.86
2023-03-18T18:35:08.545Z,13.91
2023-03-18T18:37:12.787Z,13.85
2023-03-18T18:39:15.416Z,13.91
2023-03-18T18:41:18.033Z,13.64
2023-03-18T18:43:20.803Z,13.58
2023-03-18T18:45:23.443Z,13.62
2023-03-18T18:47:26.167Z,13.56
2023-03-18T18:49:28.784Z,13.64
2023-03-18T18:51:31.497Z,13.57
2023-03-18T18:53:37.376Z,13.60
2023-03-18T18:55:40.378Z,13.52
2023-03-18T18:57:43.497Z,13.64
2023-03-18T18:59:46.474Z,13.53
2023-03-18T19:01:49.192Z,13.50
2023-03-18T19:03:52.261Z,13.47
2023-03-18T19:05:56.374Z,13.36
2023-03-18T19:07:58.957Z,13.32
2023-03-18T19:10:03.177Z,13.34
2023-03-18T19:12:15.422Z,13.26
2023-03-18T19:14:21.760Z,13.26
2023-03-18T19:16:31.270Z,13.28
2023-03-18T19:18:38.417Z,13.24
2023-03-18T19:20:41.920Z,13.23
2023-03-18T19:22:44.622Z,13.28
2023-03-18T19:24:49.411Z,13.29
2023-03-18T19:26:53.813Z,13.27
2023-03-18T19:28:59.852Z,13.31
2023-03-18T19:31:02.682Z,13.24
2023-03-18T19:33:14.361Z,13.20
2023-03-18T19:35:17.417Z,13.17
2023-03-18T19:37:24.770Z,13.20
2023-03-18T19:39:28.180Z,13.14
2023-03-18T19:41:31.205Z,13.13
2023-03-18T19:43:35.156Z,13.18
2023-03-18T19:45:37.843Z,13.15
2023-03-18T19:47:41.890Z,13.01
2023-03-18T19:49:44.747Z,13.02
2023-03-18T19:51:48.940Z,13.09
2023-03-18T19:53:52.413Z,13.01
2023-03-18T19:55:55.214Z,12.94
2023-03-18T19:57:58.564Z,12.88
2023-03-18T20:00:05.848Z,12.77
2023-03-18T20:02:23.404Z,12.77
2023-03-18T20:04:28.243Z,12.76
2023-03-18T20:06:30.977Z,12.59
2023-03-18T20:08:33.662Z,12.62
2023-03-18T20:10:36.605Z,12.61
2023-03-18T20:12:40.379Z,12.65
2023-03-18T20:14:42.978Z,12.63
2023-03-18T20:16:47.169Z,12.60
2023-03-18T20:18:49.842Z,12.58
2023-03-18T20:20:52.698Z,12.58
2023-03-18T20:22:59.255Z,12.64
2023-03-18T20:25:02.130Z,12.66
2023-03-18T20:27:05.488Z,12.67
2023-03-18T20:29:16.994Z,12.70
2023-03-18T20:31:19.590Z,12.65
2023-03-18T20:33:24.104Z,12.65
2023-03-18T20:35:29.464Z,12.60
2023-03-18T20:37:35.976Z,12.59
2023-03-18T20:39:38.713Z,12.58
2023-03-18T20:41:41.379Z,12.56
2023-03-18T20:43:44.452Z,12.52
2023-03-18T20:45:47.147Z,12.55
2023-03-18T20:47:50.196Z,12.49
2023-03-18T20:49:54.833Z,12.38
2023-03-18T20:51:57.918Z,12.40
2023-03-18T20:54:00.763Z,12.46
2023-03-18T20:56:03.360Z,12.44
2023-03-18T20:58:10.228Z,12.43
2023-03-18T21:00:16.825Z,12.42
2023-03-18T21:02:28.190Z,12.36
2023-03-18T21:04:31.034Z,12.25
2023-03-18T21:06:35.228Z,12.32
2023-03-18T21:08:38.081Z,12.39
2023-03-18T21:10:40.812Z,12.35
2023-03-18T21:12:43.844Z,12.37
2023-03-18T21:14:47.189Z,12.36
2023-03-18T21:16:51.744Z,12.40
2023-03-18T21:18:54.624Z,12.38
2023-03-18T21:20:57.831Z,12.34
2023-03-18T21:23:02.581Z,12.35
2023-03-18T21:25:08.832Z,12.35
2023-03-18T21:27:19.789Z,12.33
2023-03-18T21:29:22.891Z,12.31
2023-03-18T21:31:27.667Z,12.24
2023-03-18T21:33:32.663Z,12.22
2023-03-18T21:35:36.566Z,12.19
2023-03-18T21:37:39.379Z,12.15
2023-03-18T21:39:43.885Z,12.04
2023-03-18T21:41:46.634Z,12.06
2023-03-18T21:43:50.060Z,12.04
2023-03-18T21:45:52.797Z,11.90
2023-03-18T21:47:55.513Z,11.86
2023-03-18T21:49:58.098Z,11.80
2023-03-18T21:52:00.952Z,11.71
2023-03-18T21:54:03.616Z,11.68
2023-03-18T21:56:10.494Z,11.49
2023-03-18T21:58:16.991Z,11.21
2023-03-18T22:00:21.243Z,11.11
2023-03-18T22:02:29.218Z,11.22
2023-03-18T22:04:31.872Z,11.31
2023-03-18T22:06:34.591Z,11.36
2023-03-18T22:08:37.266Z,11.33
2023-03-18T22:10:41.085Z,11.30
2023-03-18T22:12:45.496Z,11.35
2023-03-18T22:14:48.129Z,11.37
2023-03-18T22:16:50.960Z,11.36
2023-03-18T22:18:53.557Z,11.21
2023-03-18T22:20:57.373Z,11.23
2023-03-18T22:23:00.053Z,11.15
2023-03-18T22:25:02.724Z,10.87
2023-03-18T22:27:05.460Z,10.95
2023-03-18T22:29:09.480Z,10.94
2023-03-18T22:31:19.704Z,10.96
2023-03-18T22:33:26.540Z,10.93
2023-03-18T22:35:30.874Z,10.99
2023-03-18T22:37:33.673Z,10.99
2023-03-18T22:39:36.347Z,10.96
2023-03-18T22:41:39.004Z,11.00
2023-03-18T22:43:41.630Z,10.97
2023-03-18T22:45:45.633Z,11.00
2023-03-18T22:47:48.314Z,11.01
2023-03-18T22:49:51.896Z,11.07
2023-03-18T22:51:54.842Z,11.12
2023-03-18T22:53:57.694Z,11.16
2023-03-18T22:56:05.397Z,11.09
2023-03-18T22:58:14.246Z,10.99
2023-03-18T23:00:23.025Z,11.02
2023-03-18T23:02:28.673Z,11.14
2023-03-18T23:04:31.866Z,11.17
2023-03-18T23:06:34.595Z,11.11
2023-03-18T23:08:38.598Z,11.14
2023-03-18T23:10:42.156Z,11.16
2023-03-18T23:12:44.904Z,11.05
2023-03-18T23:14:48.426Z,10.75
2023-03-18T23:16:51.182Z,10.87
2023-03-18T23:18:55.198Z,10.95
2023-03-18T23:20:57.990Z,10.96
2023-03-18T23:23:00.737Z,10.99
2023-03-18T23:25:03.510Z,10.98
2023-03-18T23:27:06.903Z,11.02
2023-03-18T23:29:09.655Z,10.95
2023-03-18T23:31:12.752Z,11.00
2023-03-18T23:33:15.835Z,11.03
2023-03-18T23:35:20.152Z,11.05
2023-03-18T23:37:24.136Z,10.99
2023-03-18T23:39:27.269Z,10.91
2023-03-18T23:41:29.873Z,10.93
2023-03-18T23:43:32.562Z,11.00
2023-03-18T23:45:35.593Z,11.12
2023-03-18T23:47:38.746Z,11.18
2023-03-18T23:49:41.457Z,11.21
2023-03-18T23:51:46.039Z,11.23
2023-03-18T23:53:48.726Z,11.14
2023-03-18T23:55:51.413Z,11.15
2023-03-18T23:57:54.067Z,11.21
2023-03-18T23:59:56.748Z,11.31
